Forside
METAR-TAF:

METAR-TAF

Lufthavne :

Carlisle, England

Breddekreds: 54-56-15N, længdekreds: 002-48-33W, højde: 57 m

Aktuelle vejr

Denne rapport blev lavet for 42 minutter siden, kl. 17:50 UTC
Vind 8 kt fra vestsydvest
Temperatur 4°C
Fugtighed 87%
Tryk 1017 hPa
Sigt 10 km eller mere
Spredte skyer i en højde af 2000 ft

METAR: EGNC 231750Z 24008KT 9999 SCT020 04/02 Q1017

Tid: 18:32 (18:32 UTC)

Vejrudsigter

Denne rapport blev lavet for 4 timer og 34 minutter siden, kl. 13:58 UTC
Foreløbig gælder fra 23 på 15 UTC til 23 på 18 UTC
Vind 18 kt fra vest med vindstød på up til 28 kt
Sigt 10 km eller mere
Spredte skyer i en højde af 2500 ft
ændring
fra 23 på 16 UTC til 23 på 18 UTC
Vind 8 kt fra vestsydvest

TAF: EGNC 231358Z 2315/2318 27018G28KT 9999 SCT025 BECMG 2316/2318 25008KT

Vejrobservationer og prognoser fra mere end 4000 lufthavne (METAR og TAF).

De gule og røde prikker repræsenterer de meteorologiske stationer.

Flyt musen over at se navnet på stationen.

Så klik over at se vejr observationer og prognoser.

At skifte det kort: Klik på de grønne knapper med et sort kors for at zoome ind; på den grønne knap med en bindestreg for at zoome ud; eller på de grønne pile for tilstødende kort.


METAR-TAF: